createdAt,value
2023-09-10T00:01:04.969Z,47.89
2023-09-10T00:03:33.623Z,47.99
2023-09-10T00:06:02.158Z,47.83
2023-09-10T00:08:29.284Z,48.10
2023-09-10T00:10:57.835Z,47.90
2023-09-10T00:13:26.214Z,48.09
2023-09-10T00:15:54.162Z,48.16
2023-09-10T00:18:21.334Z,48.29
2023-09-10T00:20:50.269Z,48.04
2023-09-10T00:23:17.267Z,48.32
2023-09-10T00:25:44.359Z,48.37
2023-09-10T00:28:11.290Z,48.41
2023-09-10T00:30:38.164Z,48.42
2023-09-10T00:33:05.413Z,48.58
2023-09-10T00:35:32.298Z,48.61
2023-09-10T00:38:01.697Z,48.74
2023-09-10T00:40:29.406Z,48.61
2023-09-10T00:42:56.231Z,48.65
2023-09-10T00:45:23.041Z,48.86
2023-09-10T00:47:49.918Z,48.70
2023-09-10T00:50:18.035Z,48.79
2023-09-10T00:52:50.475Z,48.93
2023-09-10T00:55:18.179Z,48.82
2023-09-10T00:57:45.155Z,48.79
2023-09-10T01:00:13.536Z,48.83
2023-09-10T01:02:44.730Z,49.01
2023-09-10T01:05:13.013Z,49.07
2023-09-10T01:07:40.574Z,48.96
2023-09-10T01:10:08.858Z,49.08
2023-09-10T01:12:53.718Z,48.89
2023-09-10T01:15:31.148Z,49.19
2023-09-10T01:18:13.286Z,49.10
2023-09-10T01:21:20.525Z,49.12
2023-09-10T01:24:25.031Z,48.95
2023-09-10T01:26:59.248Z,49.39
2023-09-10T01:29:26.885Z,49.34
2023-09-10T01:32:01.540Z,49.49
2023-09-10T01:34:43.113Z,49.37
2023-09-10T01:37:47.286Z,49.35
2023-09-10T01:40:22.043Z,49.49
2023-09-10T01:42:52.078Z,49.66
2023-09-10T01:45:20.110Z,49.67
2023-09-10T01:47:47.530Z,49.72
2023-09-10T01:50:15.454Z,49.68
2023-09-10T01:52:42.785Z,49.68
2023-09-10T01:55:10.108Z,49.81
2023-09-10T01:57:36.979Z,49.66
2023-09-10T02:00:06.774Z,49.87
2023-09-10T02:02:33.692Z,49.76
2023-09-10T02:05:00.787Z,49.66
2023-09-10T02:07:27.664Z,49.96
2023-09-10T02:09:54.569Z,50.02
2023-09-10T02:12:21.379Z,50.14
2023-09-10T02:14:49.855Z,50.10
2023-09-10T02:17:16.792Z,49.91
2023-09-10T02:19:43.794Z,50.00
2023-09-10T02:22:10.617Z,49.90
2023-09-10T02:24:37.422Z,50.09
2023-09-10T02:27:04.421Z,50.15
2023-09-10T02:29:31.254Z,50.10
2023-09-10T02:31:58.237Z,50.27
2023-09-10T02:34:25.140Z,50.24
2023-09-10T02:36:51.984Z,49.99
2023-09-10T02:39:18.788Z,50.38
2023-09-10T02:41:46.369Z,50.44
2023-09-10T02:44:13.221Z,50.50
2023-09-10T02:46:40.087Z,50.55
2023-09-10T02:49:06.947Z,50.16
2023-09-10T02:51:33.749Z,50.36
2023-09-10T02:54:00.603Z,50.72
2023-09-10T02:56:27.560Z,50.35
2023-09-10T02:58:54.445Z,50.66
2023-09-10T03:01:21.408Z,50.47
2023-09-10T03:03:50.220Z,50.51
2023-09-10T03:06:17.126Z,50.58
2023-09-10T03:08:45.734Z,50.59
2023-09-10T03:11:12.631Z,50.66
2023-09-10T03:13:39.494Z,50.53
2023-09-10T03:16:06.370Z,50.80
2023-09-10T03:18:33.270Z,50.71
2023-09-10T03:21:04.224Z,50.57
2023-09-10T03:23:31.097Z,50.84
2023-09-10T03:25:57.968Z,50.74
2023-09-10T03:28:24.839Z,50.85
2023-09-10T03:30:58.456Z,50.63
2023-09-10T03:33:25.432Z,50.70
2023-09-10T03:35:52.343Z,51.10
2023-09-10T03:38:19.204Z,51.04
2023-09-10T03:40:46.175Z,50.88
2023-09-10T03:43:13.064Z,51.05
2023-09-10T03:45:39.848Z,51.06
2023-09-10T03:48:07.234Z,50.93
2023-09-10T03:50:34.124Z,51.32
2023-09-10T03:53:00.971Z,51.16
2023-09-10T03:55:27.847Z,51.15
2023-09-10T03:57:54.743Z,51.55
2023-09-10T04:00:21.861Z,51.49
2023-09-10T04:02:48.906Z,51.49
2023-09-10T04:05:16.264Z,51.50
2023-09-10T04:07:43.193Z,51.41
2023-09-10T04:10:10.424Z,51.68
2023-09-10T04:12:38.152Z,51.61
2023-09-10T04:15:05.831Z,51.28
2023-09-10T04:17:32.855Z,51.40
2023-09-10T04:20:00.074Z,51.66
2023-09-10T04:22:27.469Z,51.24
2023-09-10T04:24:54.277Z,51.58
2023-09-10T04:27:21.118Z,51.37
2023-09-10T04:29:47.899Z,51.59
2023-09-10T04:32:14.769Z,51.39
2023-09-10T04:34:41.789Z,51.64
2023-09-10T04:37:08.682Z,51.65
2023-09-10T04:39:35.504Z,51.47
2023-09-10T04:42:04.053Z,51.71
2023-09-10T04:44:30.893Z,51.79
2023-09-10T04:46:57.720Z,51.50
2023-09-10T04:49:24.892Z,51.82
2023-09-10T04:51:51.697Z,51.68
2023-09-10T04:54:18.479Z,51.59
2023-09-10T04:56:47.098Z,52.00
2023-09-10T04:59:14.478Z,51.72
2023-09-10T05:01:41.339Z,52.03
2023-09-10T05:04:08.297Z,51.79
2023-09-10T05:06:36.004Z,51.79
2023-09-10T05:09:03.270Z,52.05
2023-09-10T05:11:30.098Z,52.31
2023-09-10T05:13:57.003Z,52.16
2023-09-10T05:16:23.924Z,52.33
2023-09-10T05:18:50.790Z,52.19
2023-09-10T05:21:17.675Z,52.61
2023-09-10T05:23:44.781Z,52.65
2023-09-10T05:26:11.645Z,52.68
2023-09-10T05:28:38.708Z,52.81
2023-09-10T05:31:06.503Z,52.59
2023-09-10T05:33:34.693Z,52.82
2023-09-10T05:36:01.993Z,52.84
2023-09-10T05:38:28.863Z,52.64
2023-09-10T05:41:02.208Z,52.77
2023-09-10T05:43:32.712Z,52.88
2023-09-10T05:45:59.718Z,53.27
2023-09-10T05:48:26.927Z,53.36
2023-09-10T05:50:59.931Z,53.19
2023-09-10T05:53:26.747Z,53.66
2023-09-10T05:55:53.636Z,53.86
2023-09-10T05:58:21.932Z,53.90
2023-09-10T06:00:52.162Z,54.07
2023-09-10T06:03:19.155Z,54.23
2023-09-10T06:05:46.182Z,54.44
2023-09-10T06:08:13.074Z,54.01
2023-09-10T06:10:39.902Z,54.02
2023-09-10T06:13:06.698Z,54.67
2023-09-10T06:15:33.555Z,54.38
2023-09-10T06:18:00.414Z,55.02
2023-09-10T06:20:27.413Z,54.95
2023-09-10T06:22:54.365Z,55.00
2023-09-10T06:25:21.280Z,55.28
2023-09-10T06:27:48.353Z,55.23
2023-09-10T06:30:15.208Z,55.34
2023-09-10T06:32:42.069Z,55.73
2023-09-10T06:35:09.288Z,56.14
2023-09-10T06:37:36.258Z,56.05
2023-09-10T06:40:03.964Z,56.18
2023-09-10T06:42:30.831Z,56.61
2023-09-10T06:44:57.624Z,56.65
2023-09-10T06:47:24.468Z,56.85
2023-09-10T06:49:51.342Z,57.01
2023-09-10T06:52:18.202Z,56.86
2023-09-10T06:54:45.062Z,56.85
2023-09-10T06:57:11.881Z,56.74
2023-09-10T06:59:38.671Z,56.95
2023-09-10T07:02:05.552Z,57.10
2023-09-10T07:04:32.620Z,57.19
2023-09-10T07:06:59.469Z,57.03
2023-09-10T07:09:26.295Z,57.24
2023-09-10T07:11:54.597Z,57.29
2023-09-10T07:14:22.900Z,57.26
2023-09-10T07:16:50.292Z,57.34
2023-09-10T07:19:17.561Z,57.62
2023-09-10T07:21:44.510Z,57.49
2023-09-10T07:24:11.642Z,57.49
2023-09-10T07:26:38.864Z,57.33
2023-09-10T07:29:10.104Z,57.40
2023-09-10T07:31:37.620Z,57.66
2023-09-10T07:34:05.616Z,57.71
2023-09-10T07:36:32.473Z,57.68
2023-09-10T07:38:59.415Z,57.72
2023-09-10T07:41:26.303Z,57.47
2023-09-10T07:43:53.154Z,57.09
2023-09-10T07:46:20.375Z,56.95
2023-09-10T07:48:47.197Z,57.02
2023-09-10T07:51:14.045Z,56.55
2023-09-10T07:53:40.904Z,56.53
2023-09-10T07:56:08.062Z,56.43
2023-09-10T07:58:35.030Z,56.40
2023-09-10T08:01:02.141Z,56.88
2023-09-10T08:03:29.183Z,56.67
2023-09-10T08:05:56.562Z,56.49
2023-09-10T08:08:23.495Z,56.23
2023-09-10T08:10:50.436Z,55.81
2023-09-10T08:13:17.442Z,56.15
2023-09-10T08:15:44.698Z,56.17
2023-09-10T08:18:13.469Z,56.20
2023-09-10T08:20:42.140Z,56.60
2023-09-10T08:23:09.823Z,56.27
2023-09-10T08:25:37.420Z,56.38
2023-09-10T08:28:04.746Z,56.38
2023-09-10T08:30:32.359Z,56.41
2023-09-10T08:32:59.342Z,56.37
2023-09-10T08:35:47.863Z,56.00
2023-09-10T08:38:14.896Z,56.06
2023-09-10T08:41:11.017Z,56.00
2023-09-10T08:43:51.589Z,55.66
2023-09-10T08:46:20.867Z,55.18
2023-09-10T08:48:48.034Z,54.79
2023-09-10T08:51:15.887Z,55.07
2023-09-10T08:53:44.368Z,54.66
2023-09-10T08:56:12.672Z,54.30
2023-09-10T08:58:41.992Z,54.11
2023-09-10T09:01:13.564Z,54.35
2023-09-10T09:03:40.485Z,54.22
2023-09-10T09:06:07.904Z,53.68
2023-09-10T09:08:37.370Z,53.53
2023-09-10T09:11:10.068Z,53.19
2023-09-10T09:13:45.449Z,53.09
2023-09-10T09:16:12.982Z,53.41
2023-09-10T09:18:41.676Z,53.52
2023-09-10T09:21:25.170Z,53.47
2023-09-10T09:24:02.965Z,53.10
2023-09-10T09:26:30.915Z,52.91
2023-09-10T09:28:58.525Z,51.96
2023-09-10T09:31:26.200Z,51.62
2023-09-10T09:33:54.115Z,51.53
2023-09-10T09:36:27.346Z,51.05
2023-09-10T09:38:55.569Z,51.15
2023-09-10T09:41:22.430Z,50.91
2023-09-10T09:43:49.294Z,51.75
2023-09-10T09:46:17.475Z,51.15
2023-09-10T09:48:45.625Z,50.78
2023-09-10T09:51:15.585Z,50.44
2023-09-10T09:53:44.439Z,50.48
2023-09-10T09:56:11.735Z,50.34
2023-09-10T09:58:38.853Z,50.18
2023-09-10T10:01:07.385Z,49.92
2023-09-10T10:03:34.816Z,50.62
2023-09-10T10:06:03.799Z,50.21
2023-09-10T10:08:32.729Z,50.27
2023-09-10T10:10:59.955Z,50.26
2023-09-10T10:13:28.443Z,49.76
2023-09-10T10:15:57.141Z,50.06
2023-09-10T10:18:26.071Z,49.93
2023-09-10T10:20:54.333Z,49.75
2023-09-10T10:23:26.683Z,49.57
2023-09-10T10:25:55.153Z,49.87
2023-09-10T10:28:22.902Z,49.33
2023-09-10T10:31:18.347Z,49.29
2023-09-10T10:34:06.533Z,49.35
2023-09-10T10:37:13.437Z,48.93
2023-09-10T10:40:12.159Z,48.75
2023-09-10T10:43:04.233Z,49.11
2023-09-10T10:45:33.573Z,49.02
2023-09-10T10:48:05.946Z,49.49
2023-09-10T10:50:36.445Z,49.13
2023-09-10T10:53:21.060Z,48.71
2023-09-10T10:55:52.754Z,49.32
2023-09-10T10:58:22.179Z,49.12
2023-09-10T11:00:51.337Z,48.74
2023-09-10T11:03:20.552Z,48.72
2023-09-10T11:05:53.918Z,48.92
2023-09-10T11:08:28.440Z,48.72
2023-09-10T11:10:56.069Z,49.00
2023-09-10T11:13:26.179Z,48.77
2023-09-10T11:16:05.567Z,48.28
2023-09-10T11:18:38.739Z,48.45
2023-09-10T11:21:16.999Z,47.98
2023-09-10T11:23:55.807Z,48.18
2023-09-10T11:26:22.590Z,48.30
2023-09-10T11:28:56.695Z,48.27
2023-09-10T11:31:43.017Z,47.53
2023-09-10T11:34:19.414Z,46.92
2023-09-10T11:36:52.092Z,46.61
2023-09-10T11:39:20.583Z,46.48
2023-09-10T11:41:55.545Z,46.33
2023-09-10T11:44:22.670Z,46.29
2023-09-10T11:46:52.786Z,46.39
2023-09-10T11:49:22.364Z,45.84
2023-09-10T11:51:51.742Z,45.45
2023-09-10T11:54:19.595Z,45.44
2023-09-10T11:56:57.415Z,45.12
2023-09-10T11:59:33.514Z,44.26
2023-09-10T12:02:00.996Z,43.60
2023-09-10T12:04:34.699Z,43.82
2023-09-10T12:07:02.700Z,44.17
2023-09-10T12:09:31.683Z,43.55
2023-09-10T12:12:12.202Z,43.30
2023-09-10T12:14:39.439Z,43.57
2023-09-10T12:17:06.497Z,42.99
2023-09-10T12:19:35.140Z,42.92
2023-09-10T12:22:04.422Z,42.89
2023-09-10T12:24:31.517Z,42.27
2023-09-10T12:26:59.601Z,41.79
2023-09-10T12:29:26.469Z,41.60
2023-09-10T12:31:57.822Z,41.62
2023-09-10T12:34:26.056Z,41.43
2023-09-10T12:36:53.539Z,41.30
2023-09-10T12:39:25.888Z,40.56
2023-09-10T12:42:02.478Z,41.14
2023-09-10T12:44:31.887Z,40.43
2023-09-10T12:47:00.209Z,40.22
2023-09-10T12:49:27.713Z,40.56
2023-09-10T12:51:54.547Z,40.50
2023-09-10T12:54:21.675Z,40.27
2023-09-10T12:56:52.744Z,39.87
2023-09-10T12:59:23.343Z,39.40
2023-09-10T13:01:51.171Z,38.90
2023-09-10T13:04:18.536Z,38.13
2023-09-10T13:06:45.876Z,38.59
2023-09-10T13:09:12.902Z,38.65
2023-09-10T13:11:41.099Z,38.63
2023-09-10T13:14:07.953Z,38.23
2023-09-10T13:16:34.805Z,38.08
2023-09-10T13:19:01.872Z,38.18
2023-09-10T13:21:28.749Z,37.55
2023-09-10T13:23:55.684Z,37.31
2023-09-10T13:26:22.645Z,37.00
2023-09-10T13:28:49.496Z,37.15
2023-09-10T13:31:16.578Z,36.95
2023-09-10T13:33:43.532Z,36.69
2023-09-10T13:36:11.699Z,36.80
2023-09-10T13:38:38.705Z,36.87
2023-09-10T13:41:05.717Z,37.36
2023-09-10T13:43:32.578Z,37.18
2023-09-10T13:45:59.490Z,37.36
2023-09-10T13:48:26.379Z,37.53
2023-09-10T13:50:53.232Z,38.03
2023-09-10T13:53:20.090Z,38.29
2023-09-10T13:55:47.155Z,37.58
2023-09-10T13:58:14.307Z,37.47
2023-09-10T14:00:42.234Z,38.00
2023-09-10T14:03:09.160Z,37.81
2023-09-10T14:05:36.068Z,37.56
2023-09-10T14:08:03.740Z,37.99
2023-09-10T14:10:30.676Z,38.31
2023-09-10T14:12:57.475Z,38.42
2023-09-10T14:15:24.303Z,37.85
2023-09-10T14:17:52.160Z,38.03
2023-09-10T14:20:19.090Z,37.92
2023-09-10T14:22:45.964Z,38.37
2023-09-10T14:25:16.473Z,38.13
2023-09-10T14:27:44.461Z,37.98
2023-09-10T14:30:14.061Z,38.31
2023-09-10T14:32:41.905Z,38.20
2023-09-10T14:35:09.155Z,37.71
2023-09-10T14:37:36.188Z,37.54
2023-09-10T14:40:05.585Z,37.96
2023-09-10T14:42:33.607Z,37.39
2023-09-10T14:45:00.723Z,37.02
2023-09-10T14:47:27.663Z,37.27
2023-09-10T14:49:54.636Z,37.06
2023-09-10T14:52:21.503Z,36.30
2023-09-10T14:54:48.320Z,36.28
2023-09-10T14:57:15.544Z,36.19
2023-09-10T14:59:42.380Z,35.35
2023-09-10T15:02:09.739Z,35.66
2023-09-10T15:04:36.580Z,34.97
2023-09-10T15:07:03.423Z,35.25
2023-09-10T15:09:30.464Z,34.43
2023-09-10T15:11:57.359Z,34.87
2023-09-10T15:14:24.253Z,35.08
2023-09-10T15:16:51.142Z,35.36
2023-09-10T15:19:18.282Z,35.64
2023-09-10T15:21:45.161Z,35.12
2023-09-10T15:24:11.983Z,35.49
2023-09-10T15:26:38.847Z,35.25
2023-09-10T15:29:05.809Z,35.42
2023-09-10T15:31:37.686Z,35.28
2023-09-10T15:34:05.455Z,35.23
2023-09-10T15:36:33.079Z,35.59
2023-09-10T15:39:00.094Z,35.74
2023-09-10T15:41:33.050Z,36.29
2023-09-10T15:44:04.521Z,35.87
2023-09-10T15:46:31.446Z,36.34
2023-09-10T15:49:00.358Z,36.03
2023-09-10T15:51:27.420Z,35.98
2023-09-10T15:53:54.279Z,36.69
2023-09-10T15:56:21.136Z,36.12
2023-09-10T15:58:48.015Z,36.48
2023-09-10T16:01:14.877Z,36.39
2023-09-10T16:03:42.244Z,36.84
2023-09-10T16:06:09.401Z,36.74
2023-09-10T16:08:36.552Z,36.56
2023-09-10T16:11:03.571Z,36.90
2023-09-10T16:13:30.377Z,37.13
2023-09-10T16:15:57.209Z,37.25
2023-09-10T16:18:24.007Z,37.39
2023-09-10T16:20:50.952Z,37.35
2023-09-10T16:23:18.567Z,37.66
2023-09-10T16:25:45.794Z,37.73
2023-09-10T16:28:12.666Z,37.26
2023-09-10T16:30:39.484Z,36.63
2023-09-10T16:33:06.492Z,37.03
2023-09-10T16:35:33.392Z,36.66
2023-09-10T16:38:00.344Z,36.50
2023-09-10T16:40:27.559Z,36.65
2023-09-10T16:42:54.379Z,37.04
2023-09-10T16:45:21.215Z,36.61
2023-09-10T16:47:48.105Z,36.85
2023-09-10T16:50:15.552Z,36.66
2023-09-10T16:52:42.411Z,36.89
2023-09-10T16:55:09.774Z,37.06
2023-09-10T16:57:37.238Z,37.02
2023-09-10T17:00:05.159Z,37.19
2023-09-10T17:02:32.183Z,36.66
2023-09-10T17:04:59.107Z,36.85
2023-09-10T17:07:25.924Z,36.88
2023-09-10T17:09:52.798Z,37.14
2023-09-10T17:12:19.605Z,36.88
2023-09-10T17:14:51.346Z,37.59
2023-09-10T17:17:18.289Z,37.30
2023-09-10T17:19:45.160Z,37.66
2023-09-10T17:22:11.982Z,37.54
2023-09-10T17:24:39.040Z,37.61
2023-09-10T17:27:06.200Z,37.91
2023-09-10T17:29:33.855Z,37.99
2023-09-10T17:32:00.996Z,38.09
2023-09-10T17:34:27.833Z,38.48
2023-09-10T17:36:54.733Z,38.39
2023-09-10T17:39:21.558Z,38.54
2023-09-10T17:41:48.408Z,38.69
2023-09-10T17:44:16.091Z,39.10
2023-09-10T17:46:43.082Z,39.27
2023-09-10T17:49:09.868Z,39.52
2023-09-10T17:51:36.696Z,39.62
2023-09-10T17:54:03.607Z,39.50
2023-09-10T17:56:30.556Z,39.83
2023-09-10T17:58:57.809Z,40.15
2023-09-10T18:01:26.167Z,40.31
2023-09-10T18:03:53.827Z,40.03
2023-09-10T18:06:20.741Z,40.55
2023-09-10T18:08:47.631Z,40.55
2023-09-10T18:11:15.112Z,40.52
2023-09-10T18:13:43.043Z,40.50
2023-09-10T18:16:10.360Z,40.57
2023-09-10T18:18:37.258Z,40.65
2023-09-10T18:21:04.261Z,40.88
2023-09-10T18:23:31.117Z,41.13
2023-09-10T18:25:58.022Z,41.30
2023-09-10T18:28:24.841Z,41.47
2023-09-10T18:30:53.423Z,41.73
2023-09-10T18:33:20.357Z,41.75
2023-09-10T18:35:49.363Z,41.77
2023-09-10T18:38:16.564Z,42.15
2023-09-10T18:40:44.916Z,42.42
2023-09-10T18:43:12.262Z,42.32
2023-09-10T18:45:39.160Z,42.67
2023-09-10T18:48:06.606Z,42.82
2023-09-10T18:50:33.571Z,42.96
2023-09-10T18:53:00.579Z,43.14
2023-09-10T18:55:27.541Z,43.21
2023-09-10T18:57:54.503Z,43.16
2023-09-10T19:00:21.481Z,43.73
2023-09-10T19:02:48.490Z,43.32
2023-09-10T19:05:15.577Z,43.35
2023-09-10T19:07:44.042Z,43.85
2023-09-10T19:10:11.023Z,43.59
2023-09-10T19:12:37.832Z,43.65
2023-09-10T19:15:05.009Z,43.73
2023-09-10T19:17:31.937Z,43.74
2023-09-10T19:19:58.863Z,44.27
2023-09-10T19:22:25.707Z,44.29
2023-09-10T19:24:52.664Z,44.21
2023-09-10T19:27:19.485Z,44.26
2023-09-10T19:29:46.294Z,44.48
2023-09-10T19:32:13.750Z,44.49
2023-09-10T19:34:40.613Z,44.74
2023-09-10T19:37:08.018Z,44.90
2023-09-10T19:39:34.821Z,44.83
2023-09-10T19:42:02.225Z,44.89
2023-09-10T19:44:29.164Z,44.86
2023-09-10T19:46:56.045Z,45.00
2023-09-10T19:49:24.079Z,44.86
2023-09-10T19:51:54.577Z,44.87
2023-09-10T19:54:21.496Z,45.07
2023-09-10T19:56:48.369Z,45.21
2023-09-10T19:59:15.393Z,45.55
2023-09-10T20:01:44.797Z,45.17
2023-09-10T20:04:12.815Z,45.54
2023-09-10T20:06:41.626Z,45.42
2023-09-10T20:09:08.808Z,46.02
2023-09-10T20:11:36.163Z,45.66
2023-09-10T20:14:03.936Z,46.17
2023-09-10T20:16:30.813Z,45.95
2023-09-10T20:18:57.656Z,46.13
2023-09-10T20:21:24.498Z,46.06
2023-09-10T20:23:51.493Z,45.97
2023-09-10T20:26:18.387Z,46.23
2023-09-10T20:28:45.355Z,46.03
2023-09-10T20:31:12.255Z,46.01
2023-09-10T20:33:39.642Z,46.45
2023-09-10T20:36:08.657Z,46.49
2023-09-10T20:38:36.155Z,46.79
2023-09-10T20:41:12.866Z,46.53
2023-09-10T20:43:41.228Z,46.83
2023-09-10T20:46:08.560Z,46.93
2023-09-10T20:48:35.547Z,46.72
2023-09-10T20:51:07.824Z,47.09
2023-09-10T20:53:36.961Z,46.95
2023-09-10T20:56:04.529Z,47.12
2023-09-10T20:58:31.744Z,47.34
2023-09-10T21:00:59.633Z,47.21
2023-09-10T21:03:29.558Z,47.29
2023-09-10T21:05:59.137Z,47.27
2023-09-10T21:08:26.867Z,47.12
2023-09-10T21:10:53.866Z,47.07
2023-09-10T21:13:20.674Z,47.28
2023-09-10T21:15:47.607Z,47.17
2023-09-10T21:18:15.880Z,47.55
2023-09-10T21:20:43.194Z,47.29
2023-09-10T21:23:10.252Z,47.40
2023-09-10T21:25:37.882Z,47.52
2023-09-10T21:28:07.864Z,47.60
2023-09-10T21:30:34.673Z,47.99
2023-09-10T21:33:01.841Z,47.36
2023-09-10T21:35:28.986Z,47.37
2023-09-10T21:37:55.788Z,47.67
2023-09-10T21:40:22.616Z,47.74
2023-09-10T21:42:49.460Z,47.89
2023-09-10T21:45:16.344Z,47.85
2023-09-10T21:47:43.271Z,47.79
2023-09-10T21:50:10.472Z,47.93
2023-09-10T21:52:37.615Z,47.88
2023-09-10T21:55:04.897Z,48.25
2023-09-10T21:57:31.830Z,47.85
2023-09-10T21:59:58.643Z,48.03
2023-09-10T22:02:25.610Z,48.00
2023-09-10T22:04:53.678Z,48.35
2023-09-10T22:07:20.501Z,48.19
2023-09-10T22:09:47.448Z,48.48
2023-09-10T22:12:14.368Z,48.22
2023-09-10T22:14:41.285Z,48.39
2023-09-10T22:17:08.136Z,48.27
2023-09-10T22:19:34.965Z,48.29
2023-09-10T22:22:01.914Z,48.35
2023-09-10T22:24:28.842Z,48.44
2023-09-10T22:26:55.649Z,48.69
2023-09-10T22:29:22.755Z,48.72
2023-09-10T22:31:49.751Z,48.54
2023-09-10T22:34:16.634Z,48.61
2023-09-10T22:36:43.503Z,48.79
2023-09-10T22:39:10.390Z,48.75
2023-09-10T22:41:37.285Z,48.71
2023-09-10T22:44:04.383Z,48.61
2023-09-10T22:46:31.390Z,48.63
2023-09-10T22:48:58.284Z,48.94
2023-09-10T22:51:25.132Z,49.17
2023-09-10T22:53:52.484Z,49.20
2023-09-10T22:56:21.328Z,49.22
2023-09-10T22:58:48.809Z,49.09
2023-09-10T23:01:17.806Z,49.15
2023-09-10T23:03:45.212Z,49.46
2023-09-10T23:06:12.453Z,49.27
2023-09-10T23:08:40.051Z,49.25
2023-09-10T23:11:07.620Z,49.51
2023-09-10T23:13:35.734Z,49.23
2023-09-10T23:16:04.070Z,49.49
2023-09-10T23:18:31.212Z,49.47
2023-09-10T23:20:58.151Z,49.46
2023-09-10T23:23:25.085Z,49.65
2023-09-10T23:25:52.108Z,49.82
2023-09-10T23:28:18.992Z,49.40
2023-09-10T23:30:45.787Z,49.40
2023-09-10T23:33:12.717Z,49.59
2023-09-10T23:35:39.910Z,49.59
2023-09-10T23:38:10.112Z,49.76
2023-09-10T23:40:38.584Z,49.84
2023-09-10T23:43:05.718Z,49.61
2023-09-10T23:45:32.748Z,49.81
2023-09-10T23:47:59.971Z,49.67
2023-09-10T23:50:27.005Z,49.94
2023-09-10T23:52:53.882Z,49.74
2023-09-10T23:55:20.728Z,50.03
2023-09-10T23:57:47.613Z,49.93
